If you wish to contribute or participate in the discussions about articles you are invited to join SKYbrary as a registered user

 Actions

Albert-Bray Airport

From SKYbrary Wiki

LFAQ
Airport
ICAO: LFAQ
Summary
Name Albert-Bray Airport
Region Europe
Territory France FR.gif
Location , Picardie
Serving Albert
Elevation 110.947 m
364 ft
364 ft110.947 m
Type small airport
Coordinates 49° 58' 17.5116", 2° 41' 51.5796"
Runways
Designator Length Width Surface ROPS
9/27 1170 m3,838.583 ft 25 m82.021 ft ASP /


METAR
Observation LFAQ 232300Z AUTO 33007KT CAVOK 13/09 Q1025 NOSIG
Station BRAY
Date/Time 23 June 2018 23:00:00
Wind direction 330°
Wind speed 07 kts
Lowest cloud amount clouds and visibility OK
Temperature 13°C
Dew point 9°C
Humidity 76%
QNH 1025 hPa
Weather condition n/a